sensor_id;sensor_type;location;lat;lon;timestamp;P1;durP1;ratioP1;P2;durP2;ratioP2
79570;SDS011;69034;49.444;7.758;2024-02-15T00:00:15;6.28;;;1.85;;
79570;SDS011;69034;49.444;7.758;2024-02-15T00:04:18;5.25;;;1.65;;
79570;SDS011;69034;49.444;7.758;2024-02-15T00:08:20;4.22;;;1.27;;
79570;SDS011;69034;49.444;7.758;2024-02-15T00:12:21;2.35;;;0.98;;
79570;SDS011;69034;49.444;7.758;2024-02-15T00:16:23;3.33;;;1.35;;
79570;SDS011;69034;49.444;7.758;2024-02-15T00:20:23;3.40;;;1.27;;
79570;SDS011;69034;49.444;7.758;2024-02-15T00:24:25;3.83;;;1.27;;
79570;SDS011;69034;49.444;7.758;2024-02-15T00:28:29;3.83;;;1.33;;
79570;SDS011;69034;49.444;7.758;2024-02-15T00:32:33;4.97;;;1.65;;
79570;SDS011;69034;49.444;7.758;2024-02-15T00:36:34;4.38;;;1.40;;
79570;SDS011;69034;49.444;7.758;2024-02-15T00:40:35;4.05;;;1.55;;
79570;SDS011;69034;49.444;7.758;2024-02-15T00:44:36;2.85;;;1.35;;
79570;SDS011;69034;49.444;7.758;2024-02-15T00:48:38;2.47;;;1.00;;
79570;SDS011;69034;49.444;7.758;2024-02-15T00:52:41;3.85;;;1.83;;
79570;SDS011;69034;49.444;7.758;2024-02-15T00:56:41;6.32;;;1.52;;
79570;SDS011;69034;49.444;7.758;2024-02-15T01:00:42;3.65;;;1.35;;
79570;SDS011;69034;49.444;7.758;2024-02-15T01:04:43;3.60;;;1.88;;
79570;SDS011;69034;49.444;7.758;2024-02-15T01:08:46;4.30;;;1.30;;
79570;SDS011;69034;49.444;7.758;2024-02-15T01:12:46;3.70;;;1.60;;
79570;SDS011;69034;49.444;7.758;2024-02-15T01:16:47;5.78;;;2.03;;
79570;SDS011;69034;49.444;7.758;2024-02-15T01:20:48;7.05;;;1.20;;
79570;SDS011;69034;49.444;7.758;2024-02-15T01:24:49;5.30;;;1.40;;
79570;SDS011;69034;49.444;7.758;2024-02-15T01:28:51;5.05;;;1.40;;
79570;SDS011;69034;49.444;7.758;2024-02-15T01:32:52;3.60;;;1.35;;
79570;SDS011;69034;49.444;7.758;2024-02-15T01:36:53;6.03;;;1.45;;
79570;SDS011;69034;49.444;7.758;2024-02-15T01:41:11;2.95;;;1.40;;
79570;SDS011;69034;49.444;7.758;2024-02-15T01:45:12;3.22;;;1.25;;
79570;SDS011;69034;49.444;7.758;2024-02-15T01:49:13;4.97;;;1.40;;
79570;SDS011;69034;49.444;7.758;2024-02-15T01:53:15;3.83;;;1.23;;
79570;SDS011;69034;49.444;7.758;2024-02-15T01:57:17;4.68;;;1.30;;
79570;SDS011;69034;49.444;7.758;2024-02-15T02:01:21;3.90;;;1.33;;
79570;SDS011;69034;49.444;7.758;2024-02-15T02:05:22;3.70;;;1.48;;
79570;SDS011;69034;49.444;7.758;2024-02-15T02:09:23;4.38;;;1.77;;
79570;SDS011;69034;49.444;7.758;2024-02-15T02:13:25;3.28;;;1.52;;
79570;SDS011;69034;49.444;7.758;2024-02-15T02:17:26;5.43;;;1.20;;
79570;SDS011;69034;49.444;7.758;2024-02-15T02:21:27;3.05;;;1.30;;
79570;SDS011;69034;49.444;7.758;2024-02-15T02:25:29;4.65;;;1.90;;
79570;SDS011;69034;49.444;7.758;2024-02-15T02:29:31;4.75;;;1.58;;
79570;SDS011;69034;49.444;7.758;2024-02-15T02:33:32;4.50;;;1.27;;
79570;SDS011;69034;49.444;7.758;2024-02-15T02:37:35;3.92;;;1.23;;
79570;SDS011;69034;49.444;7.758;2024-02-15T02:41:36;3.40;;;1.50;;
79570;SDS011;69034;49.444;7.758;2024-02-15T02:45:37;5.13;;;1.63;;
79570;SDS011;69034;49.444;7.758;2024-02-15T02:49:41;3.78;;;1.60;;
79570;SDS011;69034;49.444;7.758;2024-02-15T02:53:42;3.92;;;1.30;;
79570;SDS011;69034;49.444;7.758;2024-02-15T02:57:43;3.55;;;1.33;;
79570;SDS011;69034;49.444;7.758;2024-02-15T03:01:44;5.93;;;2.17;;
79570;SDS011;69034;49.444;7.758;2024-02-15T03:05:45;2.30;;;1.05;;
79570;SDS011;69034;49.444;7.758;2024-02-15T03:09:45;8.93;;;2.80;;
79570;SDS011;69034;49.444;7.758;2024-02-15T03:13:47;4.03;;;1.50;;
79570;SDS011;69034;49.444;7.758;2024-02-15T03:17:48;5.35;;;2.17;;
79570;SDS011;69034;49.444;7.758;2024-02-15T03:21:49;5.53;;;1.85;;
79570;SDS011;69034;49.444;7.758;2024-02-15T03:25:50;5.60;;;2.30;;
79570;SDS011;69034;49.444;7.758;2024-02-15T03:29:50;3.92;;;1.42;;
79570;SDS011;69034;49.444;7.758;2024-02-15T03:33:52;5.03;;;1.85;;
79570;SDS011;69034;49.444;7.758;2024-02-15T03:37:54;3.00;;;1.20;;
79570;SDS011;69034;49.444;7.758;2024-02-15T03:41:55;7.47;;;2.25;;
79570;SDS011;69034;49.444;7.758;2024-02-15T03:45:56;5.40;;;1.58;;
79570;SDS011;69034;49.444;7.758;2024-02-15T03:49:59;3.33;;;1.63;;
79570;SDS011;69034;49.444;7.758;2024-02-15T03:53:59;2.75;;;1.10;;
79570;SDS011;69034;49.444;7.758;2024-02-15T03:58:00;3.30;;;1.30;;
79570;SDS011;69034;49.444;7.758;2024-02-15T04:02:02;2.78;;;1.35;;
79570;SDS011;69034;49.444;7.758;2024-02-15T04:06:05;5.20;;;1.58;;
79570;SDS011;69034;49.444;7.758;2024-02-15T04:10:06;5.15;;;1.63;;
79570;SDS011;69034;49.444;7.758;2024-02-15T04:14:08;2.92;;;1.08;;
79570;SDS011;69034;49.444;7.758;2024-02-15T04:18:10;4.85;;;1.90;;
79570;SDS011;69034;49.444;7.758;2024-02-15T04:22:12;3.38;;;1.38;;
79570;SDS011;69034;49.444;7.758;2024-02-15T04:26:16;4.10;;;1.60;;
79570;SDS011;69034;49.444;7.758;2024-02-15T04:30:16;6.32;;;1.73;;
79570;SDS011;69034;49.444;7.758;2024-02-15T04:34:18;4.25;;;1.60;;
79570;SDS011;69034;49.444;7.758;2024-02-15T04:38:19;3.65;;;1.58;;
79570;SDS011;69034;49.444;7.758;2024-02-15T04:42:19;3.15;;;1.35;;
79570;SDS011;69034;49.444;7.758;2024-02-15T04:46:20;3.85;;;1.10;;
79570;SDS011;69034;49.444;7.758;2024-02-15T04:50:21;3.63;;;1.40;;
79570;SDS011;69034;49.444;7.758;2024-02-15T04:54:22;6.30;;;1.52;;
79570;SDS011;69034;49.444;7.758;2024-02-15T04:58:22;3.60;;;1.40;;
79570;SDS011;69034;49.444;7.758;2024-02-15T05:02:24;7.20;;;2.38;;
79570;SDS011;69034;49.444;7.758;2024-02-15T05:06:25;3.85;;;1.42;;
79570;SDS011;69034;49.444;7.758;2024-02-15T05:10:29;3.75;;;1.45;;
79570;SDS011;69034;49.444;7.758;2024-02-15T05:14:30;3.30;;;1.30;;
79570;SDS011;69034;49.444;7.758;2024-02-15T05:18:31;4.22;;;1.00;;
79570;SDS011;69034;49.444;7.758;2024-02-15T05:22:34;8.68;;;1.55;;
79570;SDS011;69034;49.444;7.758;2024-02-15T05:26:36;3.67;;;1.48;;
79570;SDS011;69034;49.444;7.758;2024-02-15T05:30:37;2.90;;;1.20;;
79570;SDS011;69034;49.444;7.758;2024-02-15T05:39:24;3.13;;;1.02;;
79570;SDS011;69034;49.444;7.758;2024-02-15T05:43:26;6.15;;;1.92;;
79570;SDS011;69034;49.444;7.758;2024-02-15T05:47:26;4.20;;;1.27;;
79570;SDS011;69034;49.444;7.758;2024-02-15T05:51:27;7.03;;;2.03;;
79570;SDS011;69034;49.444;7.758;2024-02-15T05:55:28;4.50;;;1.42;;
79570;SDS011;69034;49.444;7.758;2024-02-15T05:59:29;5.32;;;1.42;;
79570;SDS011;69034;49.444;7.758;2024-02-15T06:03:30;3.47;;;1.40;;
79570;SDS011;69034;49.444;7.758;2024-02-15T06:07:34;5.25;;;1.70;;
79570;SDS011;69034;49.444;7.758;2024-02-15T06:11:35;3.65;;;1.35;;
79570;SDS011;69034;49.444;7.758;2024-02-15T06:15:37;5.97;;;2.13;;
79570;SDS011;69034;49.444;7.758;2024-02-15T06:19:37;3.83;;;1.23;;
79570;SDS011;69034;49.444;7.758;2024-02-15T06:23:39;6.13;;;2.25;;
79570;SDS011;69034;49.444;7.758;2024-02-15T06:27:40;3.30;;;1.88;;
79570;SDS011;69034;49.444;7.758;2024-02-15T06:31:42;4.18;;;2.15;;
79570;SDS011;69034;49.444;7.758;2024-02-15T06:36:04;5.18;;;1.30;;
79570;SDS011;69034;49.444;7.758;2024-02-15T06:40:24;5.78;;;1.83;;
79570;SDS011;69034;49.444;7.758;2024-02-15T06:44:25;5.00;;;1.60;;
79570;SDS011;69034;49.444;7.758;2024-02-15T06:48:28;3.85;;;1.70;;
79570;SDS011;69034;49.444;7.758;2024-02-15T06:52:29;4.07;;;1.88;;
79570;SDS011;69034;49.444;7.758;2024-02-15T06:56:30;3.95;;;1.98;;
79570;SDS011;69034;49.444;7.758;2024-02-15T07:00:30;4.32;;;1.48;;
79570;SDS011;69034;49.444;7.758;2024-02-15T07:04:32;2.88;;;1.33;;
79570;SDS011;69034;49.444;7.758;2024-02-15T07:08:33;3.35;;;1.60;;
79570;SDS011;69034;49.444;7.758;2024-02-15T07:12:36;3.60;;;1.70;;
79570;SDS011;69034;49.444;7.758;2024-02-15T07:16:37;4.40;;;1.75;;
79570;SDS011;69034;49.444;7.758;2024-02-15T07:20:45;3.58;;;1.38;;
79570;SDS011;69034;49.444;7.758;2024-02-15T07:24:45;3.20;;;1.52;;
79570;SDS011;69034;49.444;7.758;2024-02-15T07:28:46;3.67;;;1.67;;
79570;SDS011;69034;49.444;7.758;2024-02-15T07:32:48;4.78;;;1.23;;
79570;SDS011;69034;49.444;7.758;2024-02-15T07:36:50;5.80;;;1.85;;
79570;SDS011;69034;49.444;7.758;2024-02-15T07:40:50;3.75;;;1.80;;
79570;SDS011;69034;49.444;7.758;2024-02-15T07:44:51;5.72;;;1.77;;
79570;SDS011;69034;49.444;7.758;2024-02-15T07:48:55;4.35;;;1.75;;
79570;SDS011;69034;49.444;7.758;2024-02-15T07:52:56;6.65;;;1.80;;
79570;SDS011;69034;49.444;7.758;2024-02-15T07:56:58;11.32;;;3.17;;
79570;SDS011;69034;49.444;7.758;2024-02-15T08:00:59;9.38;;;2.53;;
79570;SDS011;69034;49.444;7.758;2024-02-15T08:05:02;4.38;;;1.40;;
79570;SDS011;69034;49.444;7.758;2024-02-15T08:09:06;4.40;;;2.00;;
79570;SDS011;69034;49.444;7.758;2024-02-15T08:13:06;4.00;;;2.00;;
79570;SDS011;69034;49.444;7.758;2024-02-15T08:17:09;6.90;;;1.90;;
79570;SDS011;69034;49.444;7.758;2024-02-15T08:21:09;5.45;;;1.63;;
79570;SDS011;69034;49.444;7.758;2024-02-15T08:25:11;7.57;;;1.73;;
79570;SDS011;69034;49.444;7.758;2024-02-15T08:29:15;3.50;;;1.60;;
79570;SDS011;69034;49.444;7.758;2024-02-15T08:33:17;4.80;;;1.65;;
79570;SDS011;69034;49.444;7.758;2024-02-15T08:37:19;4.50;;;1.52;;
79570;SDS011;69034;49.444;7.758;2024-02-15T08:41:23;4.68;;;1.67;;
79570;SDS011;69034;49.444;7.758;2024-02-15T08:45:26;5.90;;;1.30;;
79570;SDS011;69034;49.444;7.758;2024-02-15T08:49:27;6.60;;;2.08;;
79570;SDS011;69034;49.444;7.758;2024-02-15T08:53:28;6.03;;;1.67;;
79570;SDS011;69034;49.444;7.758;2024-02-15T08:57:29;5.15;;;1.92;;
79570;SDS011;69034;49.444;7.758;2024-02-15T09:01:31;6.20;;;2.47;;
79570;SDS011;69034;49.444;7.758;2024-02-15T09:05:34;8.98;;;2.72;;
79570;SDS011;69034;49.444;7.758;2024-02-15T09:09:36;9.52;;;2.03;;
79570;SDS011;69034;49.444;7.758;2024-02-15T09:13:37;5.03;;;1.83;;
79570;SDS011;69034;49.444;7.758;2024-02-15T09:17:39;5.78;;;1.50;;
79570;SDS011;69034;49.444;7.758;2024-02-15T09:21:40;4.28;;;1.55;;
79570;SDS011;69034;49.444;7.758;2024-02-15T09:25:41;6.05;;;2.05;;
79570;SDS011;69034;49.444;7.758;2024-02-15T09:29:44;4.38;;;1.50;;
79570;SDS011;69034;49.444;7.758;2024-02-15T09:33:44;3.53;;;1.60;;
79570;SDS011;69034;49.444;7.758;2024-02-15T09:37:46;5.20;;;1.88;;
79570;SDS011;69034;49.444;7.758;2024-02-15T09:41:50;4.88;;;1.55;;
79570;SDS011;69034;49.444;7.758;2024-02-15T09:45:58;3.10;;;1.60;;
79570;SDS011;69034;49.444;7.758;2024-02-15T09:49:59;4.43;;;1.60;;
79570;SDS011;69034;49.444;7.758;2024-02-15T09:54:00;4.20;;;1.63;;
79570;SDS011;69034;49.444;7.758;2024-02-15T09:58:02;4.28;;;1.55;;
79570;SDS011;69034;49.444;7.758;2024-02-15T10:02:06;3.88;;;1.45;;
79570;SDS011;69034;49.444;7.758;2024-02-15T10:06:10;4.07;;;1.38;;
79570;SDS011;69034;49.444;7.758;2024-02-15T10:10:22;3.30;;;1.00;;
79570;SDS011;69034;49.444;7.758;2024-02-15T10:14:29;3.75;;;1.10;;
79570;SDS011;69034;49.444;7.758;2024-02-15T10:18:30;5.65;;;1.50;;
79570;SDS011;69034;49.444;7.758;2024-02-15T10:22:31;3.35;;;1.33;;
79570;SDS011;69034;49.444;7.758;2024-02-15T10:26:33;3.28;;;1.27;;
79570;SDS011;69034;49.444;7.758;2024-02-15T10:30:35;2.58;;;1.05;;
79570;SDS011;69034;49.444;7.758;2024-02-15T10:34:44;3.00;;;1.15;;
79570;SDS011;69034;49.444;7.758;2024-02-15T10:38:45;3.30;;;1.00;;
79570;SDS011;69034;49.444;7.758;2024-02-15T10:42:50;3.75;;;0.88;;
79570;SDS011;69034;49.444;7.758;2024-02-15T10:46:53;3.25;;;1.13;;
79570;SDS011;69034;49.444;7.758;2024-02-15T10:50:56;5.68;;;1.80;;
79570;SDS011;69034;49.444;7.758;2024-02-15T10:59:00;2.03;;;0.77;;
79570;SDS011;69034;49.444;7.758;2024-02-15T11:03:19;2.47;;;1.08;;
79570;SDS011;69034;49.444;7.758;2024-02-15T11:07:27;5.15;;;0.95;;
79570;SDS011;69034;49.444;7.758;2024-02-15T11:11:28;2.05;;;0.90;;
79570;SDS011;69034;49.444;7.758;2024-02-15T11:15:43;3.22;;;0.85;;
79570;SDS011;69034;49.444;7.758;2024-02-15T11:19:53;2.00;;;0.80;;
79570;SDS011;69034;49.444;7.758;2024-02-15T11:23:54;3.58;;;0.98;;
79570;SDS011;69034;49.444;7.758;2024-02-15T11:27:54;4.20;;;1.10;;
79570;SDS011;69034;49.444;7.758;2024-02-15T11:31:55;3.38;;;0.73;;
79570;SDS011;69034;49.444;7.758;2024-02-15T11:40:06;2.92;;;0.85;;
79570;SDS011;69034;49.444;7.758;2024-02-15T11:44:09;3.67;;;1.00;;
79570;SDS011;69034;49.444;7.758;2024-02-15T11:48:17;1.98;;;0.80;;
79570;SDS011;69034;49.444;7.758;2024-02-15T11:52:17;2.67;;;0.77;;
79570;SDS011;69034;49.444;7.758;2024-02-15T11:56:20;3.55;;;0.73;;
79570;SDS011;69034;49.444;7.758;2024-02-15T12:00:24;2.10;;;0.77;;
79570;SDS011;69034;49.444;7.758;2024-02-15T12:04:44;2.35;;;0.90;;
79570;SDS011;69034;49.444;7.758;2024-02-15T12:09:04;6.40;;;0.95;;
79570;SDS011;69034;49.444;7.758;2024-02-15T12:13:24;2.45;;;0.75;;
79570;SDS011;69034;49.444;7.758;2024-02-15T12:17:43;2.88;;;1.08;;
79570;SDS011;69034;49.444;7.758;2024-02-15T12:22:04;2.08;;;0.80;;
79570;SDS011;69034;49.444;7.758;2024-02-15T12:26:04;3.33;;;1.17;;
79570;SDS011;69034;49.444;7.758;2024-02-15T12:30:05;2.72;;;0.75;;
79570;SDS011;69034;49.444;7.758;2024-02-15T12:34:08;3.58;;;0.70;;
79570;SDS011;69034;49.444;7.758;2024-02-15T12:38:09;3.42;;;1.10;;
79570;SDS011;69034;49.444;7.758;2024-02-15T12:42:15;1.88;;;0.77;;
79570;SDS011;69034;49.444;7.758;2024-02-15T12:46:20;3.47;;;0.80;;
79570;SDS011;69034;49.444;7.758;2024-02-15T12:50:22;3.25;;;1.02;;
79570;SDS011;69034;49.444;7.758;2024-02-15T12:54:28;4.30;;;1.27;;
79570;SDS011;69034;49.444;7.758;2024-02-15T12:58:28;5.97;;;1.30;;
79570;SDS011;69034;49.444;7.758;2024-02-15T13:02:30;4.82;;;1.08;;
79570;SDS011;69034;49.444;7.758;2024-02-15T13:06:32;5.03;;;1.60;;
79570;SDS011;69034;49.444;7.758;2024-02-15T13:10:35;5.97;;;1.50;;
79570;SDS011;69034;49.444;7.758;2024-02-15T13:14:36;6.20;;;2.70;;
79570;SDS011;69034;49.444;7.758;2024-02-15T13:18:37;2.78;;;1.05;;
79570;SDS011;69034;49.444;7.758;2024-02-15T13:22:37;4.47;;;0.77;;
79570;SDS011;69034;49.444;7.758;2024-02-15T13:26:38;3.28;;;1.10;;
79570;SDS011;69034;49.444;7.758;2024-02-15T13:30:40;2.60;;;1.10;;
79570;SDS011;69034;49.444;7.758;2024-02-15T13:34:43;3.13;;;1.05;;
79570;SDS011;69034;49.444;7.758;2024-02-15T13:38:45;2.78;;;1.05;;
79570;SDS011;69034;49.444;7.758;2024-02-15T13:42:47;5.22;;;0.82;;
79570;SDS011;69034;49.444;7.758;2024-02-15T13:46:54;4.50;;;1.10;;
79570;SDS011;69034;49.444;7.758;2024-02-15T13:50:55;3.78;;;0.88;;
79570;SDS011;69034;49.444;7.758;2024-02-15T13:54:56;4.45;;;1.00;;
79570;SDS011;69034;49.444;7.758;2024-02-15T13:58:56;3.60;;;1.05;;
79570;SDS011;69034;49.444;7.758;2024-02-15T14:02:59;6.85;;;0.90;;
79570;SDS011;69034;49.444;7.758;2024-02-15T14:07:00;3.75;;;1.25;;
79570;SDS011;69034;49.444;7.758;2024-02-15T14:11:01;2.88;;;0.98;;
79570;SDS011;69034;49.444;7.758;2024-02-15T14:15:02;3.85;;;1.20;;
79570;SDS011;69034;49.444;7.758;2024-02-15T14:19:05;7.78;;;3.05;;
79570;SDS011;69034;49.444;7.758;2024-02-15T14:23:07;4.75;;;1.55;;
79570;SDS011;69034;49.444;7.758;2024-02-15T14:27:13;5.40;;;1.23;;
79570;SDS011;69034;49.444;7.758;2024-02-15T14:31:17;7.65;;;4.00;;
79570;SDS011;69034;49.444;7.758;2024-02-15T14:35:37;5.32;;;1.95;;
79570;SDS011;69034;49.444;7.758;2024-02-15T14:39:39;3.88;;;1.27;;
79570;SDS011;69034;49.444;7.758;2024-02-15T14:43:40;2.72;;;1.08;;
79570;SDS011;69034;49.444;7.758;2024-02-15T14:47:40;4.82;;;1.20;;
79570;SDS011;69034;49.444;7.758;2024-02-15T14:51:42;6.43;;;1.30;;
79570;SDS011;69034;49.444;7.758;2024-02-15T14:55:43;6.97;;;1.20;;
79570;SDS011;69034;49.444;7.758;2024-02-15T14:59:46;3.97;;;1.58;;
79570;SDS011;69034;49.444;7.758;2024-02-15T15:03:52;3.90;;;1.23;;
79570;SDS011;69034;49.444;7.758;2024-02-15T15:07:54;5.63;;;2.60;;
79570;SDS011;69034;49.444;7.758;2024-02-15T15:12:14;4.93;;;1.90;;
79570;SDS011;69034;49.444;7.758;2024-02-15T15:16:33;4.38;;;1.60;;
79570;SDS011;69034;49.444;7.758;2024-02-15T15:20:34;4.25;;;1.30;;
79570;SDS011;69034;49.444;7.758;2024-02-15T15:24:35;3.83;;;1.30;;
79570;SDS011;69034;49.444;7.758;2024-02-15T15:28:37;4.05;;;1.33;;
79570;SDS011;69034;49.444;7.758;2024-02-15T15:32:39;5.85;;;1.20;;
79570;SDS011;69034;49.444;7.758;2024-02-15T15:36:39;2.67;;;1.00;;
79570;SDS011;69034;49.444;7.758;2024-02-15T15:40:40;2.42;;;1.00;;
79570;SDS011;69034;49.444;7.758;2024-02-15T15:44:41;5.97;;;1.20;;
79570;SDS011;69034;49.444;7.758;2024-02-15T15:48:42;3.05;;;1.05;;
79570;SDS011;69034;49.444;7.758;2024-02-15T15:52:43;4.85;;;1.20;;
79570;SDS011;69034;49.444;7.758;2024-02-15T15:56:48;2.40;;;1.10;;
79570;SDS011;69034;49.444;7.758;2024-02-15T16:00:48;4.13;;;1.20;;
79570;SDS011;69034;49.444;7.758;2024-02-15T16:04:49;3.65;;;1.15;;
79570;SDS011;69034;49.444;7.758;2024-02-15T16:08:50;2.65;;;1.13;;
79570;SDS011;69034;49.444;7.758;2024-02-15T16:12:51;3.33;;;1.40;;
79570;SDS011;69034;49.444;7.758;2024-02-15T16:16:52;4.30;;;1.00;;
79570;SDS011;69034;49.444;7.758;2024-02-15T16:20:54;2.95;;;1.00;;
79570;SDS011;69034;49.444;7.758;2024-02-15T16:24:55;3.35;;;1.10;;
79570;SDS011;69034;49.444;7.758;2024-02-15T16:28:56;3.78;;;0.90;;
79570;SDS011;69034;49.444;7.758;2024-02-15T16:32:56;4.32;;;0.95;;
79570;SDS011;69034;49.444;7.758;2024-02-15T16:36:57;3.55;;;1.20;;
79570;SDS011;69034;49.444;7.758;2024-02-15T16:40:58;5.47;;;1.30;;
79570;SDS011;69034;49.444;7.758;2024-02-15T16:44:59;3.47;;;1.17;;
79570;SDS011;69034;49.444;7.758;2024-02-15T16:49:00;2.97;;;1.08;;
79570;SDS011;69034;49.444;7.758;2024-02-15T16:53:01;2.97;;;1.25;;
79570;SDS011;69034;49.444;7.758;2024-02-15T16:57:02;4.28;;;1.20;;
79570;SDS011;69034;49.444;7.758;2024-02-15T17:01:03;3.35;;;0.93;;
79570;SDS011;69034;49.444;7.758;2024-02-15T17:05:04;5.15;;;1.60;;
79570;SDS011;69034;49.444;7.758;2024-02-15T17:09:05;2.72;;;1.20;;
79570;SDS011;69034;49.444;7.758;2024-02-15T17:13:06;3.33;;;1.10;;
79570;SDS011;69034;49.444;7.758;2024-02-15T17:17:08;3.25;;;1.45;;
79570;SDS011;69034;49.444;7.758;2024-02-15T17:21:08;4.03;;;1.75;;
79570;SDS011;69034;49.444;7.758;2024-02-15T17:25:09;7.10;;;1.80;;
79570;SDS011;69034;49.444;7.758;2024-02-15T17:29:13;2.55;;;1.20;;
79570;SDS011;69034;49.444;7.758;2024-02-15T17:33:15;6.68;;;1.60;;
79570;SDS011;69034;49.444;7.758;2024-02-15T17:37:15;4.93;;;1.83;;
79570;SDS011;69034;49.444;7.758;2024-02-15T17:41:16;4.88;;;1.73;;
79570;SDS011;69034;49.444;7.758;2024-02-15T17:45:17;7.00;;;1.75;;
79570;SDS011;69034;49.444;7.758;2024-02-15T17:49:18;6.20;;;1.70;;
79570;SDS011;69034;49.444;7.758;2024-02-15T17:53:18;5.07;;;1.98;;
79570;SDS011;69034;49.444;7.758;2024-02-15T17:57:21;5.30;;;1.85;;
79570;SDS011;69034;49.444;7.758;2024-02-15T18:01:22;3.70;;;1.70;;
79570;SDS011;69034;49.444;7.758;2024-02-15T18:05:24;4.15;;;2.13;;
79570;SDS011;69034;49.444;7.758;2024-02-15T18:09:24;4.70;;;1.83;;
79570;SDS011;69034;49.444;7.758;2024-02-15T18:13:25;7.28;;;2.20;;
79570;SDS011;69034;49.444;7.758;2024-02-15T18:17:27;6.40;;;2.10;;
79570;SDS011;69034;49.444;7.758;2024-02-15T18:21:28;7.35;;;1.98;;
79570;SDS011;69034;49.444;7.758;2024-02-15T18:25:32;10.02;;;2.28;;
79570;SDS011;69034;49.444;7.758;2024-02-15T18:29:32;9.85;;;1.92;;
79570;SDS011;69034;49.444;7.758;2024-02-15T18:33:33;7.32;;;2.85;;
79570;SDS011;69034;49.444;7.758;2024-02-15T18:37:39;5.28;;;2.22;;
79570;SDS011;69034;49.444;7.758;2024-02-15T18:41:44;6.82;;;2.25;;
79570;SDS011;69034;49.444;7.758;2024-02-15T18:45:47;10.23;;;2.97;;
79570;SDS011;69034;49.444;7.758;2024-02-15T18:49:48;5.38;;;2.40;;
79570;SDS011;69034;49.444;7.758;2024-02-15T18:53:48;8.35;;;2.72;;
79570;SDS011;69034;49.444;7.758;2024-02-15T18:57:49;6.00;;;2.00;;
79570;SDS011;69034;49.444;7.758;2024-02-15T19:01:50;5.60;;;1.67;;
79570;SDS011;69034;49.444;7.758;2024-02-15T19:05:51;5.15;;;1.52;;
79570;SDS011;69034;49.444;7.758;2024-02-15T19:09:51;6.03;;;1.92;;
79570;SDS011;69034;49.444;7.758;2024-02-15T19:13:52;4.53;;;1.80;;
79570;SDS011;69034;49.444;7.758;2024-02-15T19:17:53;6.70;;;2.45;;
79570;SDS011;69034;49.444;7.758;2024-02-15T19:21:53;5.78;;;2.65;;
79570;SDS011;69034;49.444;7.758;2024-02-15T19:25:54;6.20;;;2.08;;
79570;SDS011;69034;49.444;7.758;2024-02-15T19:29:55;7.10;;;2.40;;
79570;SDS011;69034;49.444;7.758;2024-02-15T19:33:57;6.70;;;2.42;;
79570;SDS011;69034;49.444;7.758;2024-02-15T19:37:57;8.57;;;2.13;;
79570;SDS011;69034;49.444;7.758;2024-02-15T19:41:58;8.25;;;2.50;;
79570;SDS011;69034;49.444;7.758;2024-02-15T19:45:59;6.00;;;2.47;;
79570;SDS011;69034;49.444;7.758;2024-02-15T19:50:01;8.23;;;2.35;;
79570;SDS011;69034;49.444;7.758;2024-02-15T19:54:03;11.05;;;3.80;;
79570;SDS011;69034;49.444;7.758;2024-02-15T19:58:04;10.02;;;3.35;;
79570;SDS011;69034;49.444;7.758;2024-02-15T20:02:04;11.20;;;4.10;;
79570;SDS011;69034;49.444;7.758;2024-02-15T20:06:06;5.75;;;3.03;;
79570;SDS011;69034;49.444;7.758;2024-02-15T20:10:07;4.28;;;1.60;;
79570;SDS011;69034;49.444;7.758;2024-02-15T20:14:09;5.30;;;2.22;;
79570;SDS011;69034;49.444;7.758;2024-02-15T20:18:10;5.53;;;2.30;;
79570;SDS011;69034;49.444;7.758;2024-02-15T20:22:11;7.82;;;3.58;;
79570;SDS011;69034;49.444;7.758;2024-02-15T20:26:13;5.47;;;2.47;;
79570;SDS011;69034;49.444;7.758;2024-02-15T20:30:15;5.78;;;2.53;;
79570;SDS011;69034;49.444;7.758;2024-02-15T20:34:17;7.00;;;2.20;;
79570;SDS011;69034;49.444;7.758;2024-02-15T20:38:20;9.02;;;3.15;;
79570;SDS011;69034;49.444;7.758;2024-02-15T20:42:28;7.35;;;2.92;;
79570;SDS011;69034;49.444;7.758;2024-02-15T20:46:29;7.85;;;3.08;;
79570;SDS011;69034;49.444;7.758;2024-02-15T20:50:30;7.72;;;2.20;;
79570;SDS011;69034;49.444;7.758;2024-02-15T20:54:32;4.65;;;2.05;;
79570;SDS011;69034;49.444;7.758;2024-02-15T20:58:32;4.95;;;2.20;;
79570;SDS011;69034;49.444;7.758;2024-02-15T21:02:33;7.18;;;2.50;;
79570;SDS011;69034;49.444;7.758;2024-02-15T21:06:33;6.85;;;2.10;;
79570;SDS011;69034;49.444;7.758;2024-02-15T21:10:37;5.05;;;1.77;;
79570;SDS011;69034;49.444;7.758;2024-02-15T21:14:37;6.75;;;1.83;;
79570;SDS011;69034;49.444;7.758;2024-02-15T21:18:38;4.32;;;1.73;;
79570;SDS011;69034;49.444;7.758;2024-02-15T21:22:39;4.63;;;1.77;;
79570;SDS011;69034;49.444;7.758;2024-02-15T21:26:43;4.97;;;1.60;;
79570;SDS011;69034;49.444;7.758;2024-02-15T21:30:44;2.80;;;1.30;;
79570;SDS011;69034;49.444;7.758;2024-02-15T21:34:44;3.00;;;1.40;;
79570;SDS011;69034;49.444;7.758;2024-02-15T21:38:45;4.15;;;1.65;;
79570;SDS011;69034;49.444;7.758;2024-02-15T21:42:46;4.38;;;1.98;;
79570;SDS011;69034;49.444;7.758;2024-02-15T21:46:46;3.20;;;1.52;;
79570;SDS011;69034;49.444;7.758;2024-02-15T21:50:47;5.15;;;2.35;;
79570;SDS011;69034;49.444;7.758;2024-02-15T21:54:47;5.05;;;2.70;;
79570;SDS011;69034;49.444;7.758;2024-02-15T21:58:48;5.22;;;2.63;;
79570;SDS011;69034;49.444;7.758;2024-02-15T22:02:49;4.15;;;2.00;;
79570;SDS011;69034;49.444;7.758;2024-02-15T22:06:49;6.82;;;2.60;;
79570;SDS011;69034;49.444;7.758;2024-02-15T22:10:50;7.20;;;2.22;;
79570;SDS011;69034;49.444;7.758;2024-02-15T22:14:52;4.32;;;2.58;;
79570;SDS011;69034;49.444;7.758;2024-02-15T22:18:53;5.78;;;2.38;;
79570;SDS011;69034;49.444;7.758;2024-02-15T22:22:54;6.18;;;2.85;;
79570;SDS011;69034;49.444;7.758;2024-02-15T22:26:55;6.22;;;2.50;;
79570;SDS011;69034;49.444;7.758;2024-02-15T22:30:58;6.78;;;2.38;;
79570;SDS011;69034;49.444;7.758;2024-02-15T22:34:58;5.70;;;2.50;;
79570;SDS011;69034;49.444;7.758;2024-02-15T22:38:59;3.95;;;1.60;;
79570;SDS011;69034;49.444;7.758;2024-02-15T22:43:00;5.30;;;2.28;;
79570;SDS011;69034;49.444;7.758;2024-02-15T22:47:00;7.55;;;2.83;;
79570;SDS011;69034;49.444;7.758;2024-02-15T22:51:02;5.38;;;2.25;;
79570;SDS011;69034;49.444;7.758;2024-02-15T22:55:04;6.78;;;2.85;;
79570;SDS011;69034;49.444;7.758;2024-02-15T22:59:06;7.20;;;2.78;;
79570;SDS011;69034;49.444;7.758;2024-02-15T23:03:06;7.95;;;2.85;;
79570;SDS011;69034;49.444;7.758;2024-02-15T23:07:07;4.35;;;2.13;;
79570;SDS011;69034;49.444;7.758;2024-02-15T23:11:10;4.88;;;2.38;;
79570;SDS011;69034;49.444;7.758;2024-02-15T23:15:11;4.82;;;2.10;;
79570;SDS011;69034;49.444;7.758;2024-02-15T23:19:14;4.72;;;2.63;;
79570;SDS011;69034;49.444;7.758;2024-02-15T23:23:16;4.90;;;1.90;;
79570;SDS011;69034;49.444;7.758;2024-02-15T23:27:17;6.35;;;1.98;;
79570;SDS011;69034;49.444;7.758;2024-02-15T23:31:18;8.50;;;4.18;;
79570;SDS011;69034;49.444;7.758;2024-02-15T23:35:18;12.80;;;4.18;;
79570;SDS011;69034;49.444;7.758;2024-02-15T23:39:19;13.13;;;4.00;;
79570;SDS011;69034;49.444;7.758;2024-02-15T23:43:45;12.63;;;5.10;;
79570;SDS011;69034;49.444;7.758;2024-02-15T23:47:46;7.68;;;2.58;;
79570;SDS011;69034;49.444;7.758;2024-02-15T23:51:47;6.70;;;2.45;;
79570;SDS011;69034;49.444;7.758;2024-02-15T23:55:49;5.55;;;2.60;;
79570;SDS011;69034;49.444;7.758;2024-02-15T23:59:49;6.03;;;2.33;;
